createdAt,value
2017-06-19T00:13:29.853Z,21.40
2017-06-19T00:15:58.086Z,21.40
2017-06-19T00:18:26.326Z,21.30
2017-06-19T00:41:34.468Z,21.00
2017-06-19T00:44:02.731Z,21.00
2017-06-19T00:55:31.779Z,20.80
2017-06-19T00:58:00.026Z,20.70
2017-06-19T01:00:54.305Z,20.50
2017-06-19T01:03:22.556Z,20.20
2017-06-19T01:05:50.805Z,19.80
2017-06-19T01:08:19.110Z,19.70
2017-06-19T01:10:47.370Z,20.30
2017-06-19T01:13:15.628Z,20.40
2017-06-19T01:15:44.125Z,20.40
2017-06-19T01:18:12.387Z,20.20
2017-06-19T01:20:40.614Z,20.00
2017-06-19T01:56:11.600Z,19.90
2017-06-19T02:20:00.486Z,19.60
2017-06-19T02:22:29.318Z,19.40
2017-06-19T02:24:57.578Z,19.50
2017-06-19T02:36:26.627Z,19.50
2017-06-19T02:38:54.890Z,18.90
2017-06-19T02:41:23.176Z,19.20
2017-06-19T02:43:51.446Z,19.30
2017-06-19T02:46:19.679Z,19.30
2017-06-19T02:48:47.954Z,19.30
2017-06-19T04:03:14.694Z,18.70
2017-06-19T04:05:42.939Z,18.40
2017-06-19T04:08:11.175Z,17.70
2017-06-19T04:10:39.470Z,17.20
2017-06-19T04:13:07.708Z,17.40
2017-06-19T05:24:41.288Z,17.70
2017-06-19T05:27:09.578Z,17.80
2017-06-19T05:29:37.871Z,17.70
2017-06-19T05:32:06.150Z,17.80
2017-06-19T05:34:34.394Z,17.80
2017-06-19T05:37:02.702Z,17.90
2017-06-19T05:39:30.952Z,17.90
2017-06-19T05:41:59.202Z,18.00
2017-06-19T05:44:27.474Z,18.10
2017-06-19T05:46:55.722Z,18.30
2017-06-19T05:49:23.999Z,18.40
2017-06-19T05:51:52.233Z,18.40
2017-06-19T07:06:21.945Z,22.40
2017-06-19T07:08:50.250Z,22.60
2017-06-19T07:20:19.249Z,22.70
2017-06-19T07:22:47.552Z,22.80
2017-06-19T07:40:15.743Z,22.70
2017-06-19T07:42:44.005Z,22.80
2017-06-19T08:18:14.773Z,24.10
2017-06-19T08:20:43.023Z,24.20
2017-06-19T08:23:28.240Z,24.20
2017-06-19T08:25:56.498Z,24.10
2017-06-19T08:28:24.746Z,24.30
2017-06-19T08:30:53.043Z,24.30
2017-06-19T08:33:21.306Z,24.50
2017-06-19T08:35:49.557Z,24.40
2017-06-19T08:38:17.860Z,24.20
2017-06-19T08:40:46.105Z,24.30
2017-06-19T08:43:14.349Z,24.70
2017-06-19T08:45:42.621Z,25.30
2017-06-19T11:36:37.578Z,29.20
2017-06-19T12:35:53.545Z,30.00
2017-06-19T12:38:21.936Z,30.80
2017-06-19T12:40:50.181Z,30.60
2017-06-19T14:19:53.689Z,39.00
2017-06-19T14:22:21.924Z,38.50
2017-06-19T14:24:50.342Z,38.90
2017-06-19T14:27:18.591Z,39.00
2017-06-19T14:29:46.880Z,39.50
2017-06-19T14:32:15.134Z,39.40
2017-06-19T14:34:43.394Z,39.70
2017-06-19T14:37:11.914Z,39.70
2017-06-19T17:09:35.827Z,42.50
2017-06-19T17:12:04.080Z,42.10
2017-06-19T17:14:32.358Z,42.40
2017-06-19T17:35:01.849Z,41.70
2017-06-19T17:37:30.099Z,41.40
2017-06-19T17:39:58.381Z,41.50
2017-06-19T17:42:26.637Z,41.90
2017-06-19T17:44:54.954Z,41.10
2017-06-19T18:05:24.827Z,39.40
2017-06-19T18:25:53.686Z,39.00
2017-06-19T18:40:21.186Z,38.50
2017-06-19T18:42:49.449Z,39.00
2017-06-19T18:45:17.727Z,38.00
2017-06-19T18:47:46.065Z,38.60
2017-06-19T18:50:14.318Z,39.20
2017-06-19T18:52:42.603Z,39.30
2017-06-19T18:55:10.860Z,39.30
2017-06-19T18:57:39.168Z,37.80
2017-06-19T19:00:07.455Z,36.80
2017-06-19T19:02:54.832Z,36.40
2017-06-19T19:05:23.125Z,36.90
2017-06-19T19:07:51.386Z,37.00
2017-06-19T19:28:21.825Z,34.00
2017-06-19T19:30:50.096Z,33.90
2017-06-19T19:33:18.340Z,33.70
2017-06-19T19:35:46.655Z,34.40
2017-06-19T19:38:34.543Z,35.00
2017-06-19T19:41:02.855Z,34.90
2017-06-19T19:43:31.143Z,34.60
2017-06-19T20:04:00.761Z,34.70
2017-06-19T20:09:28.827Z,34.80
2017-06-19T20:11:57.119Z,34.80
2017-06-19T20:14:25.360Z,34.70
2017-06-19T20:16:53.671Z,34.60
2017-06-19T20:31:23.163Z,33.80
2017-06-19T20:57:58.987Z,31.50
2017-06-19T21:03:26.949Z,32.40
2017-06-19T21:05:55.208Z,32.40
2017-06-19T21:08:23.559Z,32.40
2017-06-19T21:25:52.616Z,31.40
2017-06-19T21:28:20.869Z,31.40
2017-06-19T21:30:49.119Z,31.30
2017-06-19T21:33:17.406Z,31.20
2017-06-19T21:35:45.712Z,31.10
2017-06-19T22:11:41.868Z,29.60
2017-06-19T22:26:11.391Z,29.20
2017-06-19T22:28:39.641Z,28.80
2017-06-19T22:31:07.928Z,28.30
2017-06-19T22:42:55.799Z,27.20
2017-06-19T23:51:26.931Z,26.20
2017-06-19T23:53:55.172Z,25.90
